sensor_id;sensor_type;location;lat;lon;timestamp;pressure;altitude;pressure_sealevel;temperature;humidity
73870;BME280;64924;42.140;24.762;2024-02-21T00:01:22;100402.25;;;9.85;64.80
73870;BME280;64924;42.140;24.762;2024-02-21T00:03:48;100417.66;;;9.92;65.34
73870;BME280;64924;42.140;24.762;2024-02-21T00:06:13;100414.78;;;9.94;65.38
73870;BME280;64924;42.140;24.762;2024-02-21T00:08:39;100420.53;;;9.99;65.65
73870;BME280;64924;42.140;24.762;2024-02-21T00:11:04;100407.81;;;9.99;65.74
73870;BME280;64924;42.140;24.762;2024-02-21T00:13:30;100408.50;;;9.93;65.77
73870;BME280;64924;42.140;24.762;2024-02-21T00:15:55;100412.06;;;9.94;65.83
73870;BME280;64924;42.140;24.762;2024-02-21T00:18:21;100408.16;;;9.96;65.87
73870;BME280;64924;42.140;24.762;2024-02-21T00:20:47;100401.19;;;10.02;65.56
73870;BME280;64924;42.140;24.762;2024-02-21T00:23:12;100410.16;;;10.02;65.75
73870;BME280;64924;42.140;24.762;2024-02-21T00:25:38;100408.00;;;9.98;65.77
73870;BME280;64924;42.140;24.762;2024-02-21T00:28:04;100409.69;;;9.99;66.11
73870;BME280;64924;42.140;24.762;2024-02-21T00:30:31;100397.47;;;9.95;65.72
73870;BME280;64924;42.140;24.762;2024-02-21T00:32:56;100406.41;;;10.03;65.83
73870;BME280;64924;42.140;24.762;2024-02-21T00:35:22;100404.44;;;9.97;66.06
73870;BME280;64924;42.140;24.762;2024-02-21T00:37:48;100359.50;;;9.79;66.46
73870;BME280;64924;42.140;24.762;2024-02-21T00:40:13;100395.56;;;10.03;66.24
73870;BME280;64924;42.140;24.762;2024-02-21T00:42:46;100353.41;;;9.77;66.02
73870;BME280;64924;42.140;24.762;2024-02-21T00:45:12;100391.47;;;10.07;66.09
73870;BME280;64924;42.140;24.762;2024-02-21T00:47:38;100371.19;;;9.95;65.92
73870;BME280;64924;42.140;24.762;2024-02-21T00:50:03;100396.81;;;9.93;66.89
73870;BME280;64924;42.140;24.762;2024-02-21T00:52:29;100398.00;;;9.90;66.85
73870;BME280;64924;42.140;24.762;2024-02-21T00:54:54;100337.00;;;9.62;66.56
73870;BME280;64924;42.140;24.762;2024-02-21T00:57:20;100383.41;;;9.91;66.54
73870;BME280;64924;42.140;24.762;2024-02-21T00:59:45;100336.50;;;9.58;66.53
73870;BME280;64924;42.140;24.762;2024-02-21T01:02:11;100338.03;;;9.53;67.12
73870;BME280;64924;42.140;24.762;2024-02-21T01:04:36;100378.34;;;9.80;67.22
73870;BME280;64924;42.140;24.762;2024-02-21T01:07:02;100377.84;;;9.77;67.00
73870;BME280;64924;42.140;24.762;2024-02-21T01:09:28;100373.25;;;9.77;67.07
73870;BME280;64924;42.140;24.762;2024-02-21T01:11:53;100375.09;;;9.85;66.87
73870;BME280;64924;42.140;24.762;2024-02-21T01:14:19;100372.72;;;9.90;66.22
73870;BME280;64924;42.140;24.762;2024-02-21T01:16:44;100376.59;;;9.95;66.35
73870;BME280;64924;42.140;24.762;2024-02-21T01:19:10;100325.66;;;9.58;66.60
73870;BME280;64924;42.140;24.762;2024-02-21T01:21:35;100370.00;;;9.90;66.65
73870;BME280;64924;42.140;24.762;2024-02-21T01:24:00;100329.06;;;9.60;66.63
73870;BME280;64924;42.140;24.762;2024-02-21T01:26:26;100371.72;;;9.83;66.86
73870;BME280;64924;42.140;24.762;2024-02-21T01:28:51;100327.84;;;9.63;66.44
73870;BME280;64924;42.140;24.762;2024-02-21T01:31:17;100355.94;;;9.86;66.33
73870;BME280;64924;42.140;24.762;2024-02-21T01:33:43;100362.38;;;9.93;66.31
73870;BME280;64924;42.140;24.762;2024-02-21T01:36:08;100358.47;;;9.96;66.04
73870;BME280;64924;42.140;24.762;2024-02-21T01:38:34;100362.50;;;10.00;65.87
73870;BME280;64924;42.140;24.762;2024-02-21T01:41:00;100342.16;;;9.96;65.98
73870;BME280;64924;42.140;24.762;2024-02-21T01:43:26;100363.13;;;10.10;65.23
73870;BME280;64924;42.140;24.762;2024-02-21T01:45:57;100327.06;;;10.01;65.36
73870;BME280;64924;42.140;24.762;2024-02-21T01:48:23;100354.16;;;10.10;65.33
73870;BME280;64924;42.140;24.762;2024-02-21T01:50:50;100359.22;;;10.13;65.37
73870;BME280;64924;42.140;24.762;2024-02-21T01:53:19;100343.59;;;10.15;64.98
73870;BME280;64924;42.140;24.762;2024-02-21T01:55:46;100348.53;;;10.11;64.89
73870;BME280;64924;42.140;24.762;2024-02-21T01:58:15;100345.31;;;10.07;64.80
73870;BME280;64924;42.140;24.762;2024-02-21T02:00:46;100339.53;;;10.11;64.63
73870;BME280;64924;42.140;24.762;2024-02-21T02:03:13;100343.97;;;10.03;64.67
73870;BME280;64924;42.140;24.762;2024-02-21T02:05:49;100347.38;;;10.05;64.85
73870;BME280;64924;42.140;24.762;2024-02-21T02:08:16;100356.06;;;10.01;64.97
73870;BME280;64924;42.140;24.762;2024-02-21T02:10:42;100340.00;;;9.83;65.60
73870;BME280;64924;42.140;24.762;2024-02-21T02:13:08;100348.66;;;9.79;65.51
73870;BME280;64924;42.140;24.762;2024-02-21T02:15:49;100341.53;;;9.69;66.35
73870;BME280;64924;42.140;24.762;2024-02-21T02:18:17;100338.38;;;9.50;66.78
73870;BME280;64924;42.140;24.762;2024-02-21T02:20:44;100337.53;;;9.41;67.31
73870;BME280;64924;42.140;24.762;2024-02-21T02:23:12;100335.03;;;9.23;67.87
73870;BME280;64924;42.140;24.762;2024-02-21T02:25:39;100346.06;;;9.22;67.85
73870;BME280;64924;42.140;24.762;2024-02-21T02:28:08;100347.72;;;8.98;69.29
73870;BME280;64924;42.140;24.762;2024-02-21T02:30:34;100329.44;;;8.76;69.67
73870;BME280;64924;42.140;24.762;2024-02-21T02:33:02;100325.72;;;8.77;69.51
73870;BME280;64924;42.140;24.762;2024-02-21T02:35:27;100348.06;;;8.95;69.93
73870;BME280;64924;42.140;24.762;2024-02-21T02:37:53;100343.84;;;9.09;69.38
73870;BME280;64924;42.140;24.762;2024-02-21T02:40:19;100346.06;;;9.14;69.38
73870;BME280;64924;42.140;24.762;2024-02-21T02:42:44;100351.81;;;9.27;68.57
73870;BME280;64924;42.140;24.762;2024-02-21T02:45:10;100355.34;;;9.35;68.64
73870;BME280;64924;42.140;24.762;2024-02-21T02:47:36;100335.50;;;9.35;68.11
73870;BME280;64924;42.140;24.762;2024-02-21T02:50:02;100345.34;;;9.52;67.71
73870;BME280;64924;42.140;24.762;2024-02-21T02:52:27;100343.47;;;9.36;68.23
73870;BME280;64924;42.140;24.762;2024-02-21T02:54:53;100346.34;;;9.43;68.13
73870;BME280;64924;42.140;24.762;2024-02-21T02:57:21;100350.25;;;9.41;68.36
73870;BME280;64924;42.140;24.762;2024-02-21T02:59:50;100346.34;;;9.51;68.32
73870;BME280;64924;42.140;24.762;2024-02-21T03:02:16;100339.22;;;9.50;67.76
73870;BME280;64924;42.140;24.762;2024-02-21T03:04:45;100346.34;;;9.59;67.82
73870;BME280;64924;42.140;24.762;2024-02-21T03:07:11;100346.16;;;9.61;67.53
73870;BME280;64924;42.140;24.762;2024-02-21T03:09:40;100351.38;;;9.70;67.29
73870;BME280;64924;42.140;24.762;2024-02-21T03:12:06;100349.69;;;9.69;67.36
73870;BME280;64924;42.140;24.762;2024-02-21T03:14:32;100340.53;;;9.70;67.34
73870;BME280;64924;42.140;24.762;2024-02-21T03:16:58;100349.69;;;9.78;67.18
73870;BME280;64924;42.140;24.762;2024-02-21T03:19:24;100352.72;;;9.83;66.54
73870;BME280;64924;42.140;24.762;2024-02-21T03:21:50;100339.66;;;9.78;66.59
73870;BME280;64924;42.140;24.762;2024-02-21T03:24:16;100350.84;;;9.83;66.34
73870;BME280;64924;42.140;24.762;2024-02-21T03:26:42;100301.06;;;9.60;66.39
73870;BME280;64924;42.140;24.762;2024-02-21T03:29:07;100341.69;;;9.84;66.31
73870;BME280;64924;42.140;24.762;2024-02-21T03:31:34;100338.31;;;9.82;66.63
73870;BME280;64924;42.140;24.762;2024-02-21T03:34:00;100317.47;;;9.66;66.61
73870;BME280;64924;42.140;24.762;2024-02-21T03:36:26;100340.03;;;9.67;67.56
73870;BME280;64924;42.140;24.762;2024-02-21T03:38:51;100331.25;;;9.65;67.65
73870;BME280;64924;42.140;24.762;2024-02-21T03:41:17;100342.97;;;9.49;68.49
73870;BME280;64924;42.140;24.762;2024-02-21T03:43:42;100331.94;;;9.43;68.62
73870;BME280;64924;42.140;24.762;2024-02-21T03:46:08;100329.59;;;9.31;68.68
73870;BME280;64924;42.140;24.762;2024-02-21T03:48:33;100321.28;;;9.33;68.94
73870;BME280;64924;42.140;24.762;2024-02-21T03:50:59;100329.94;;;9.28;68.97
73870;BME280;64924;42.140;24.762;2024-02-21T03:53:24;100327.22;;;9.36;68.87
73870;BME280;64924;42.140;24.762;2024-02-21T03:55:50;100327.41;;;9.27;69.88
73870;BME280;64924;42.140;24.762;2024-02-21T03:58:15;100328.91;;;9.37;69.42
73870;BME280;64924;42.140;24.762;2024-02-21T04:00:41;100339.75;;;9.37;69.15
73870;BME280;64924;42.140;24.762;2024-02-21T04:03:06;100334.53;;;9.20;70.29
73870;BME280;64924;42.140;24.762;2024-02-21T04:05:32;100322.66;;;9.21;70.13
73870;BME280;64924;42.140;24.762;2024-02-21T04:07:58;100330.97;;;9.19;70.29
73870;BME280;64924;42.140;24.762;2024-02-21T04:10:24;100347.56;;;9.16;71.00
73870;BME280;64924;42.140;24.762;2024-02-21T04:12:49;100338.09;;;9.12;70.83
73870;BME280;64924;42.140;24.762;2024-02-21T04:15:16;100343.19;;;9.23;70.31
73870;BME280;64924;42.140;24.762;2024-02-21T04:17:42;100350.44;;;9.39;69.46
73870;BME280;64924;42.140;24.762;2024-02-21T04:20:14;100339.59;;;9.31;69.60
73870;BME280;64924;42.140;24.762;2024-02-21T04:22:40;100211.88;;;8.20;69.52
73870;BME280;64924;42.140;24.762;2024-02-21T04:25:06;100310.28;;;8.61;70.66
73870;BME280;64924;42.140;24.762;2024-02-21T04:27:32;100352.56;;;8.38;72.20
73870;BME280;64924;42.140;24.762;2024-02-21T04:29:57;100322.19;;;7.84;72.52
73870;BME280;64924;42.140;24.762;2024-02-21T04:32:23;100358.69;;;7.80;72.79
73870;BME280;64924;42.140;24.762;2024-02-21T04:34:48;100356.59;;;7.66;73.25
73870;BME280;64924;42.140;24.762;2024-02-21T04:37:14;100368.94;;;7.43;74.47
73870;BME280;64924;42.140;24.762;2024-02-21T04:39:40;100372.31;;;7.36;73.93
73870;BME280;64924;42.140;24.762;2024-02-21T04:42:05;100371.78;;;7.33;74.50
73870;BME280;64924;42.140;24.762;2024-02-21T04:44:31;100376.09;;;7.26;74.63
73870;BME280;64924;42.140;24.762;2024-02-21T04:46:56;100380.34;;;7.28;75.01
73870;BME280;64924;42.140;24.762;2024-02-21T04:49:22;100374.47;;;7.33;74.63
73870;BME280;64924;42.140;24.762;2024-02-21T04:51:47;100380.28;;;7.46;74.56
73870;BME280;64924;42.140;24.762;2024-02-21T04:54:13;100372.63;;;7.59;74.38
73870;BME280;64924;42.140;24.762;2024-02-21T04:56:38;100370.44;;;7.63;74.03
73870;BME280;64924;42.140;24.762;2024-02-21T04:59:04;100376.97;;;7.78;73.60
73870;BME280;64924;42.140;24.762;2024-02-21T05:01:29;100343.88;;;7.58;73.12
73870;BME280;64924;42.140;24.762;2024-02-21T05:03:55;100387.97;;;7.85;72.94
73870;BME280;64924;42.140;24.762;2024-02-21T05:06:20;100390.50;;;7.78;72.83
73870;BME280;64924;42.140;24.762;2024-02-21T05:08:45;100401.34;;;7.86;73.05
73870;BME280;64924;42.140;24.762;2024-02-21T05:11:11;100391.38;;;7.87;72.51
73870;BME280;64924;42.140;24.762;2024-02-21T05:13:36;100400.81;;;7.83;72.93
73870;BME280;64924;42.140;24.762;2024-02-21T05:16:02;100383.72;;;7.74;72.77
73870;BME280;64924;42.140;24.762;2024-02-21T05:18:28;100398.78;;;7.85;72.92
73870;BME280;64924;42.140;24.762;2024-02-21T05:20:53;100370.28;;;7.64;72.56
73870;BME280;64924;42.140;24.762;2024-02-21T05:23:19;100400.97;;;7.81;73.27
73870;BME280;64924;42.140;24.762;2024-02-21T05:25:45;100397.63;;;7.87;73.07
73870;BME280;64924;42.140;24.762;2024-02-21T05:28:10;100398.03;;;8.00;72.61
73870;BME280;64924;42.140;24.762;2024-02-21T05:30:36;100390.28;;;8.05;72.01
73870;BME280;64924;42.140;24.762;2024-02-21T05:33:05;100403.19;;;8.12;72.86
73870;BME280;64924;42.140;24.762;2024-02-21T05:35:31;100389.81;;;8.10;72.20
73870;BME280;64924;42.140;24.762;2024-02-21T05:37:57;100396.66;;;8.30;71.78
73870;BME280;64924;42.140;24.762;2024-02-21T05:40:22;100407.56;;;8.38;71.01
73870;BME280;64924;42.140;24.762;2024-02-21T05:42:48;100407.91;;;8.44;71.33
73870;BME280;64924;42.140;24.762;2024-02-21T05:45:13;100358.72;;;8.22;70.31
73870;BME280;64924;42.140;24.762;2024-02-21T05:47:41;100371.84;;;8.35;69.80
73870;BME280;64924;42.140;24.762;2024-02-21T05:50:07;100406.91;;;8.45;70.12
73870;BME280;64924;42.140;24.762;2024-02-21T05:52:34;100370.81;;;8.36;70.15
73870;BME280;64924;42.140;24.762;2024-02-21T05:54:59;100419.66;;;8.68;69.87
73870;BME280;64924;42.140;24.762;2024-02-21T05:57:25;100421.69;;;8.66;69.48
73870;BME280;64924;42.140;24.762;2024-02-21T05:59:50;100424.78;;;8.80;69.31
73870;BME280;64924;42.140;24.762;2024-02-21T06:02:16;100420.91;;;8.82;69.40
73870;BME280;64924;42.140;24.762;2024-02-21T06:04:41;100417.00;;;9.01;68.69
73870;BME280;64924;42.140;24.762;2024-02-21T06:07:08;100363.81;;;8.92;67.74
73870;BME280;64924;42.140;24.762;2024-02-21T06:09:34;100418.75;;;9.26;67.57
73870;BME280;64924;42.140;24.762;2024-02-21T06:11:59;100441.13;;;9.20;67.74
73870;BME280;64924;42.140;24.762;2024-02-21T06:14:26;100431.97;;;9.37;67.84
73870;BME280;64924;42.140;24.762;2024-02-21T06:16:51;100438.41;;;9.36;67.03
73870;BME280;64924;42.140;24.762;2024-02-21T06:19:17;100425.84;;;9.44;66.82
73870;BME280;64924;42.140;24.762;2024-02-21T06:21:42;100429.09;;;9.47;66.50
73870;BME280;64924;42.140;24.762;2024-02-21T06:24:08;100438.59;;;9.59;66.53
73870;BME280;64924;42.140;24.762;2024-02-21T06:26:33;100444.13;;;9.82;65.70
73870;BME280;64924;42.140;24.762;2024-02-21T06:28:59;100414.28;;;9.82;64.96
73870;BME280;64924;42.140;24.762;2024-02-21T06:31:28;100444.44;;;10.20;64.48
73870;BME280;64924;42.140;24.762;2024-02-21T06:33:54;100401.66;;;10.14;63.62
73870;BME280;64924;42.140;24.762;2024-02-21T06:36:19;100447.34;;;10.57;63.08
73870;BME280;64924;42.140;24.762;2024-02-21T06:38:44;100445.69;;;10.79;62.80
73870;BME280;64924;42.140;24.762;2024-02-21T06:41:17;100437.47;;;11.18;61.25
73870;BME280;64924;42.140;24.762;2024-02-21T06:43:45;100421.09;;;11.26;60.80
73870;BME280;64924;42.140;24.762;2024-02-21T06:46:11;100443.56;;;11.20;60.98
73870;BME280;64924;42.140;24.762;2024-02-21T06:48:36;100447.16;;;11.44;60.72
73870;BME280;64924;42.140;24.762;2024-02-21T06:51:02;100435.06;;;11.46;60.44
73870;BME280;64924;42.140;24.762;2024-02-21T06:53:28;100436.53;;;11.71;59.94
73870;BME280;64924;42.140;24.762;2024-02-21T06:55:54;100430.13;;;11.87;59.30
73870;BME280;64924;42.140;24.762;2024-02-21T06:58:19;100438.50;;;12.15;58.38
73870;BME280;64924;42.140;24.762;2024-02-21T07:00:45;100431.09;;;12.24;57.58
73870;BME280;64924;42.140;24.762;2024-02-21T07:03:10;100434.09;;;12.44;57.01
73870;BME280;64924;42.140;24.762;2024-02-21T07:05:36;100412.75;;;12.47;56.61
73870;BME280;64924;42.140;24.762;2024-02-21T07:08:02;100435.84;;;12.66;56.01
73870;BME280;64924;42.140;24.762;2024-02-21T07:10:28;100437.16;;;12.70;56.23
73870;BME280;64924;42.140;24.762;2024-02-21T07:12:55;100427.25;;;12.84;56.27
73870;BME280;64924;42.140;24.762;2024-02-21T07:15:21;100428.50;;;13.17;54.88
73870;BME280;64924;42.140;24.762;2024-02-21T07:17:46;100434.75;;;13.54;54.76
73870;BME280;64924;42.140;24.762;2024-02-21T07:20:12;100392.94;;;13.53;52.82
73870;BME280;64924;42.140;24.762;2024-02-21T07:22:37;100426.69;;;13.95;51.72
73870;BME280;64924;42.140;24.762;2024-02-21T07:25:03;100419.91;;;13.91;51.40
73870;BME280;64924;42.140;24.762;2024-02-21T07:27:29;100419.06;;;13.90;51.43
73870;BME280;64924;42.140;24.762;2024-02-21T07:29:56;100405.31;;;14.05;50.94
73870;BME280;64924;42.140;24.762;2024-02-21T07:32:22;100441.34;;;14.50;49.93
73870;BME280;64924;42.140;24.762;2024-02-21T07:34:48;100406.47;;;14.58;48.80
73870;BME280;64924;42.140;24.762;2024-02-21T07:37:13;100430.53;;;14.76;48.34
73870;BME280;64924;42.140;24.762;2024-02-21T07:39:39;100444.06;;;14.84;48.68
73870;BME280;64924;42.140;24.762;2024-02-21T07:42:04;100438.84;;;15.02;48.72
73870;BME280;64924;42.140;24.762;2024-02-21T07:44:31;100434.66;;;15.13;48.55
73870;BME280;64924;42.140;24.762;2024-02-21T07:46:57;100437.59;;;15.05;48.51
73870;BME280;64924;42.140;24.762;2024-02-21T07:49:23;100431.47;;;15.03;47.98
73870;BME280;64924;42.140;24.762;2024-02-21T07:51:48;100396.41;;;14.65;48.25
73870;BME280;64924;42.140;24.762;2024-02-21T07:54:14;100446.13;;;14.89;48.69
73870;BME280;64924;42.140;24.762;2024-02-21T07:56:39;100438.41;;;14.99;49.05
73870;BME280;64924;42.140;24.762;2024-02-21T07:59:05;100442.47;;;15.29;48.06
73870;BME280;64924;42.140;24.762;2024-02-21T08:01:30;100437.28;;;15.61;47.43
73870;BME280;64924;42.140;24.762;2024-02-21T08:03:56;100401.88;;;15.53;46.50
73870;BME280;64924;42.140;24.762;2024-02-21T08:06:22;100426.75;;;15.71;46.29
73870;BME280;64924;42.140;24.762;2024-02-21T08:08:47;100430.34;;;15.58;46.10
73870;BME280;64924;42.140;24.762;2024-02-21T08:11:13;100430.75;;;15.62;45.55
73870;BME280;64924;42.140;24.762;2024-02-21T08:13:38;100436.03;;;15.70;45.53
73870;BME280;64924;42.140;24.762;2024-02-21T08:16:04;100436.69;;;15.59;45.78
73870;BME280;64924;42.140;24.762;2024-02-21T08:18:29;100438.50;;;15.45;45.92
73870;BME280;64924;42.140;24.762;2024-02-21T08:20:55;100425.19;;;15.29;45.91
73870;BME280;64924;42.140;24.762;2024-02-21T08:23:23;100443.34;;;15.43;46.40
73870;BME280;64924;42.140;24.762;2024-02-21T08:25:49;100439.34;;;15.46;46.14
73870;BME280;64924;42.140;24.762;2024-02-21T08:28:15;100437.03;;;15.36;46.44
73870;BME280;64924;42.140;24.762;2024-02-21T08:30:40;100443.13;;;15.31;46.42
73870;BME280;64924;42.140;24.762;2024-02-21T08:33:09;100438.50;;;15.38;46.19
73870;BME280;64924;42.140;24.762;2024-02-21T08:35:35;100451.56;;;15.36;46.58
73870;BME280;64924;42.140;24.762;2024-02-21T08:38:00;100437.88;;;15.36;46.14
73870;BME280;64924;42.140;24.762;2024-02-21T08:40:26;100443.34;;;15.43;45.44
73870;BME280;64924;42.140;24.762;2024-02-21T08:42:51;100434.50;;;15.41;45.28
73870;BME280;64924;42.140;24.762;2024-02-21T08:45:17;100439.34;;;15.39;45.35
73870;BME280;64924;42.140;24.762;2024-02-21T08:47:43;100404.97;;;15.10;44.80
73870;BME280;64924;42.140;24.762;2024-02-21T08:50:09;100409.59;;;15.23;44.70
73870;BME280;64924;42.140;24.762;2024-02-21T08:52:35;100445.19;;;15.23;45.03
73870;BME280;64924;42.140;24.762;2024-02-21T08:55:01;100447.09;;;15.16;44.74
73870;BME280;64924;42.140;24.762;2024-02-21T08:57:27;100446.13;;;14.82;45.89
73870;BME280;64924;42.140;24.762;2024-02-21T08:59:52;100449.09;;;14.81;46.85
73870;BME280;64924;42.140;24.762;2024-02-21T09:02:18;100448.44;;;14.85;46.79
73870;BME280;64924;42.140;24.762;2024-02-21T09:04:43;100374.31;;;14.26;46.89
73870;BME280;64924;42.140;24.762;2024-02-21T09:07:10;100451.53;;;14.69;46.94
73870;BME280;64924;42.140;24.762;2024-02-21T09:09:35;100455.75;;;14.71;46.92
73870;BME280;64924;42.140;24.762;2024-02-21T09:12:01;100452.88;;;14.86;46.57
73870;BME280;64924;42.140;24.762;2024-02-21T09:14:31;100444.66;;;14.86;46.44
73870;BME280;64924;42.140;24.762;2024-02-21T09:16:57;100414.16;;;14.83;46.50
73870;BME280;64924;42.140;24.762;2024-02-21T09:19:23;100435.91;;;15.11;46.18
73870;BME280;64924;42.140;24.762;2024-02-21T09:21:48;100441.44;;;15.37;45.70
73870;BME280;64924;42.140;24.762;2024-02-21T09:24:14;100432.03;;;15.66;44.72
73870;BME280;64924;42.140;24.762;2024-02-21T09:26:40;100439.78;;;16.22;43.78
73870;BME280;64924;42.140;24.762;2024-02-21T09:29:05;100431.47;;;16.61;42.42
73870;BME280;64924;42.140;24.762;2024-02-21T09:31:31;100379.00;;;16.89;41.74
73870;BME280;64924;42.140;24.762;2024-02-21T09:33:56;100387.41;;;17.57;39.39
73870;BME280;64924;42.140;24.762;2024-02-21T09:36:22;100412.75;;;17.91;39.06
73870;BME280;64924;42.140;24.762;2024-02-21T09:38:48;100421.88;;;18.10;38.34
73870;BME280;64924;42.140;24.762;2024-02-21T09:41:18;100421.28;;;18.08;38.22
73870;BME280;64924;42.140;24.762;2024-02-21T09:43:50;100420.91;;;17.79;38.49
73870;BME280;64924;42.140;24.762;2024-02-21T09:46:19;100419.97;;;17.85;38.89
73870;BME280;64924;42.140;24.762;2024-02-21T09:51:37;100417.69;;;18.25;37.45
73870;BME280;64924;42.140;24.762;2024-02-21T09:54:07;100409.66;;;18.24;36.54
73870;BME280;64924;42.140;24.762;2024-02-21T09:56:33;100373.47;;;17.84;36.66
73870;BME280;64924;42.140;24.762;2024-02-21T09:58:59;100413.81;;;17.90;36.99
73870;BME280;64924;42.140;24.762;2024-02-21T10:01:24;100403.84;;;17.64;37.25
73870;BME280;64924;42.140;24.762;2024-02-21T10:03:50;100389.34;;;17.25;37.35
73870;BME280;64924;42.140;24.762;2024-02-21T10:06:16;100405.75;;;17.07;37.68
73870;BME280;64924;42.140;24.762;2024-02-21T10:08:41;100392.31;;;16.92;38.59
73870;BME280;64924;42.140;24.762;2024-02-21T10:11:07;100401.41;;;16.86;38.91
73870;BME280;64924;42.140;24.762;2024-02-21T10:13:34;100399.25;;;16.95;38.30
73870;BME280;64924;42.140;24.762;2024-02-21T10:16:07;100395.25;;;16.91;38.12
73870;BME280;64924;42.140;24.762;2024-02-21T10:18:34;100395.53;;;16.76;38.12
73870;BME280;64924;42.140;24.762;2024-02-21T10:21:02;100366.94;;;16.46;37.99
73870;BME280;64924;42.140;24.762;2024-02-21T10:23:29;100380.53;;;16.21;38.36
73870;BME280;64924;42.140;24.762;2024-02-21T10:26:04;100383.63;;;16.37;39.22
73870;BME280;64924;42.140;24.762;2024-02-21T10:28:30;100373.69;;;16.43;39.18
73870;BME280;64924;42.140;24.762;2024-02-21T10:30:56;100366.28;;;16.50;38.68
73870;BME280;64924;42.140;24.762;2024-02-21T10:33:21;100357.72;;;16.33;38.49
73870;BME280;64924;42.140;24.762;2024-02-21T10:35:49;100347.19;;;16.30;38.53
73870;BME280;64924;42.140;24.762;2024-02-21T10:38:15;100343.16;;;16.33;38.66
73870;BME280;64924;42.140;24.762;2024-02-21T10:40:40;100332.44;;;16.25;37.72
73870;BME280;64924;42.140;24.762;2024-02-21T10:43:12;100347.41;;;16.22;37.90
73870;BME280;64924;42.140;24.762;2024-02-21T10:45:39;100337.53;;;16.15;37.91
73870;BME280;64924;42.140;24.762;2024-02-21T10:48:15;100341.09;;;16.22;37.79
73870;BME280;64924;42.140;24.762;2024-02-21T10:58:46;100307.44;;;15.88;38.28
73870;BME280;64924;42.140;24.762;2024-02-21T11:01:12;100316.72;;;15.94;38.69
73870;BME280;64924;42.140;24.762;2024-02-21T11:03:41;100298.38;;;15.88;38.42
73870;BME280;64924;42.140;24.762;2024-02-21T11:06:10;100296.63;;;16.07;38.05
73870;BME280;64924;42.140;24.762;2024-02-21T11:08:36;100295.91;;;16.31;37.84
73870;BME280;64924;42.140;24.762;2024-02-21T11:11:04;100299.66;;;16.43;37.27
73870;BME280;64924;42.140;24.762;2024-02-21T11:13:37;100296.47;;;16.46;36.71
73870;BME280;64924;42.140;24.762;2024-02-21T11:16:10;100284.00;;;16.50;36.36
73870;BME280;64924;42.140;24.762;2024-02-21T11:18:37;100229.34;;;16.11;36.75
73870;BME280;64924;42.140;24.762;2024-02-21T11:21:02;100278.47;;;16.19;36.50
73870;BME280;64924;42.140;24.762;2024-02-21T11:23:30;100289.44;;;16.19;36.70
73870;BME280;64924;42.140;24.762;2024-02-21T11:26:09;100283.41;;;16.42;36.40
73870;BME280;64924;42.140;24.762;2024-02-21T11:28:35;100258.03;;;16.15;36.54
73870;BME280;64924;42.140;24.762;2024-02-21T11:31:22;100277.06;;;16.41;36.76
73870;BME280;64924;42.140;24.762;2024-02-21T11:33:47;100264.41;;;16.40;36.77
73870;BME280;64924;42.140;24.762;2024-02-21T11:36:24;100264.66;;;16.77;35.85
73870;BME280;64924;42.140;24.762;2024-02-21T11:38:51;100266.56;;;16.76;35.63
73870;BME280;64924;42.140;24.762;2024-02-21T11:41:16;100259.78;;;16.79;35.82
73870;BME280;64924;42.140;24.762;2024-02-21T11:43:42;100260.41;;;16.81;36.02
73870;BME280;64924;42.140;24.762;2024-02-21T11:46:07;100267.50;;;16.95;36.25
73870;BME280;64924;42.140;24.762;2024-02-21T11:48:33;100223.19;;;16.91;35.05
73870;BME280;64924;42.140;24.762;2024-02-21T11:50:58;100264.03;;;17.06;34.51
73870;BME280;64924;42.140;24.762;2024-02-21T11:53:25;100254.00;;;17.18;34.77
73870;BME280;64924;42.140;24.762;2024-02-21T11:55:56;100218.69;;;16.97;33.92
73870;BME280;64924;42.140;24.762;2024-02-21T11:58:22;100257.00;;;17.10;34.20
73870;BME280;64924;42.140;24.762;2024-02-21T12:00:48;100243.28;;;16.85;34.35
73870;BME280;64924;42.140;24.762;2024-02-21T12:03:14;100243.28;;;16.85;35.20
73870;BME280;64924;42.140;24.762;2024-02-21T12:05:41;100250.41;;;16.93;34.46
73870;BME280;64924;42.140;24.762;2024-02-21T12:08:07;100234.81;;;16.87;33.64
73870;BME280;64924;42.140;24.762;2024-02-21T12:10:35;100231.97;;;17.00;33.76
73870;BME280;64924;42.140;24.762;2024-02-21T12:13:08;100236.41;;;17.01;33.71
73870;BME280;64924;42.140;24.762;2024-02-21T12:15:34;100234.88;;;16.80;34.41
73870;BME280;64924;42.140;24.762;2024-02-21T12:17:59;100224.50;;;16.82;34.58
73870;BME280;64924;42.140;24.762;2024-02-21T12:20:25;100224.28;;;16.84;34.38
73870;BME280;64924;42.140;24.762;2024-02-21T12:22:51;100225.63;;;16.75;34.39
73870;BME280;64924;42.140;24.762;2024-02-21T12:25:22;100223.28;;;16.78;34.00
73870;BME280;64924;42.140;24.762;2024-02-21T12:27:48;100216.31;;;16.76;34.25
73870;BME280;64924;42.140;24.762;2024-02-21T12:30:17;100206.84;;;16.71;34.32
73870;BME280;64924;42.140;24.762;2024-02-21T12:32:43;100213.66;;;16.69;34.17
73870;BME280;64924;42.140;24.762;2024-02-21T12:35:09;100206.31;;;16.56;34.60
73870;BME280;64924;42.140;24.762;2024-02-21T12:37:34;100205.66;;;16.61;34.79
73870;BME280;64924;42.140;24.762;2024-02-21T12:40:00;100206.09;;;16.64;33.90
73870;BME280;64924;42.140;24.762;2024-02-21T12:42:26;100193.31;;;16.77;33.89
73870;BME280;64924;42.140;24.762;2024-02-21T12:44:52;100178.88;;;16.88;33.58
73870;BME280;64924;42.140;24.762;2024-02-21T12:47:20;100187.09;;;16.88;33.37
73870;BME280;64924;42.140;24.762;2024-02-21T12:49:49;100188.78;;;16.89;33.16
73870;BME280;64924;42.140;24.762;2024-02-21T12:52:15;100178.66;;;16.89;33.35